Time;durP1;ratioP1;P1;durP2;ratioP2;P2;SDS_P1;SDS_P2;PMS_P1;PMS_P2;Temp;Humidity;BMP_temperature;BMP_pressure;BME280_temperature;BME280_humidity;BME280_pressure;Samples;Min_cycle;Max_cycle;Signal;HPM_P1;HPM_P2
2024/04/10 00:00:59;;;;;;;4.13;2.55;;;;;;;;;;5360237;26;20275;-80
2024/04/10 00:03:28;;;;;;;4.03;2.35;;;;;;;;;;5376703;26;20342;-80
2024/04/10 00:05:58;;;;;;;6.30;2.30;;;;;;;;;;5342758;26;20266;-80
2024/04/10 00:08:30;;;;;;;3.40;2.30;;;;;;;;;;5351275;26;20248;-80
2024/04/10 00:10:56;;;;;;;4.20;1.83;;;;;;;;;;5344374;26;20673;-80
2024/04/10 00:13:25;;;;;;;4.00;2.40;;;;;;;;;;5364894;26;20344;-79
2024/04/10 00:15:58;;;;;;;7.88;4.10;;;;;;;;;;5368290;26;20244;-79
2024/04/10 00:18:27;;;;;;;9.98;3.63;;;;;;;;;;5341394;26;20859;-79
2024/04/10 00:20:54;;;;;;;4.60;2.30;;;;;;;;;;5343363;26;20660;-79
2024/04/10 00:23:23;;;;;;;6.78;2.33;;;;;;;;;;5365949;26;20769;-79
2024/04/10 00:25:55;;;;;;;9.10;2.40;;;;;;;;;;5379062;26;20764;-79
2024/04/10 00:28:24;;;;;;;3.83;2.20;;;;;;;;;;5350604;26;20291;-80
2024/04/10 00:30:51;;;;;;;5.85;2.15;;;;;;;;;;5366496;26;20835;-80
2024/04/10 00:33:20;;;;;;;4.45;2.67;;;;;;;;;;5378069;26;20243;-80
2024/04/10 00:35:53;;;;;;;2.42;2.22;;;;;;;;;;5362320;26;20844;-80
2024/04/10 00:38:22;;;;;;;4.30;2.33;;;;;;;;;;5359122;26;20255;-80
2024/04/10 00:40:52;;;;;;;5.68;2.05;;;;;;;;;;5371496;26;20247;-80
2024/04/10 00:43:24;;;;;;;8.48;2.70;;;;;;;;;;5370074;26;20735;-80
2024/04/10 00:45:53;;;;;;;3.50;1.70;;;;;;;;;;5353724;26;20631;-80
2024/04/10 00:48:22;;;;;;;3.17;1.80;;;;;;;;;;5352568;26;20237;-79
2024/04/10 00:50:49;;;;;;;5.35;2.08;;;;;;;;;;5351827;26;20267;-80
2024/04/10 00:53:18;;;;;;;4.10;2.38;;;;;;;;;;5343799;26;20841;-79
2024/04/10 00:55:44;;;;;;;4.38;2.25;;;;;;;;;;5370166;26;20247;-80
2024/04/10 00:58:13;;;;;;;2.00;1.90;;;;;;;;;;5352641;26;20237;-79
2024/04/10 01:00:42;;;;;;;3.53;2.30;;;;;;;;;;5343702;26;20228;-79
2024/04/10 01:03:11;;;;;;;8.15;2.30;;;;;;;;;;5362119;26;20859;-79
2024/04/10 01:05:38;;;;;;;5.28;2.20;;;;;;;;;;5378729;26;20255;-79
2024/04/10 01:08:07;;;;;;;3.30;2.45;;;;;;;;;;5380179;26;20227;-82
2024/04/10 01:10:34;;;;;;;7.57;2.30;;;;;;;;;;5380745;26;20344;-79
2024/04/10 01:13:03;;;;;;;4.75;2.72;;;;;;;;;;5376004;26;20239;-82
2024/04/10 01:15:29;;;;;;;7.75;2.65;;;;;;;;;;5365060;26;20614;-79
2024/04/10 01:18:01;;;;;;;5.60;2.50;;;;;;;;;;5347621;26;20228;-80
2024/04/10 01:20:29;;;;;;;3.95;2.20;;;;;;;;;;5353658;26;20243;-79
2024/04/10 01:23:03;;;;;;;2.33;2.13;;;;;;;;;;5379815;26;20768;-80
2024/04/10 01:25:30;;;;;;;14.25;3.50;;;;;;;;;;5381107;26;20361;-81
2024/04/10 01:27:59;;;;;;;3.88;2.25;;;;;;;;;;5381478;26;20270;-80
2024/04/10 01:30:25;;;;;;;12.38;2.88;;;;;;;;;;5382797;26;20247;-80
2024/04/10 01:32:54;;;;;;;7.40;3.03;;;;;;;;;;5381647;26;20975;-81
2024/04/10 01:35:21;;;;;;;7.75;2.53;;;;;;;;;;5382091;26;20236;-80
2024/04/10 01:37:50;;;;;;;4.22;1.88;;;;;;;;;;5381270;26;20270;-80
2024/04/10 01:40:19;;;;;;;3.63;2.65;;;;;;;;;;5381304;26;20274;-80
2024/04/10 01:42:48;;;;;;;4.60;1.80;;;;;;;;;;5362855;26;20294;-80
2024/04/10 01:45:14;;;;;;;3.13;1.77;;;;;;;;;;5353959;26;20808;-80
2024/04/10 01:47:43;;;;;;;5.05;1.80;;;;;;;;;;5362372;26;20600;-80
2024/04/10 01:50:15;;;;;;;7.47;2.40;;;;;;;;;;5380853;26;20231;-80
2024/04/10 01:52:41;;;;;;;1.90;1.65;;;;;;;;;;5378251;26;20247;-79
2024/04/10 01:55:10;;;;;;;5.20;2.40;;;;;;;;;;5339990;26;20228;-80
2024/04/10 01:57:40;;;;;;;4.75;2.25;;;;;;;;;;5378591;26;20243;-80
2024/04/10 02:00:09;;;;;;;3.25;2.08;;;;;;;;;;5380454;26;20243;-80
2024/04/10 02:02:36;;;;;;;6.22;2.33;;;;;;;;;;5325384;26;20250;-80
2024/04/10 02:05:05;;;;;;;3.47;2.00;;;;;;;;;;5378035;26;20290;-80
2024/04/10 02:07:31;;;;;;;32.15;15.18;;;;;;;;;;5380726;26;20337;-80
2024/04/10 02:10:00;;;;;;;16.85;8.38;;;;;;;;;;5386968;26;20246;-82
2024/04/10 02:12:27;;;;;;;14.90;12.45;;;;;;;;;;5414721;26;20246;-80
2024/04/10 02:14:58;;;;;;;22.70;20.25;;;;;;;;;;5371391;26;20233;-80
2024/04/10 02:17:25;;;;;;;29.15;17.73;;;;;;;;;;5377245;26;20248;-80
2024/04/10 02:19:56;;;;;;;18.25;13.18;;;;;;;;;;5413817;26;20234;-80
2024/04/10 02:22:23;;;;;;;31.88;23.33;;;;;;;;;;5355936;26;20244;-80
2024/04/10 02:24:55;;;;;;;8.30;4.97;;;;;;;;;;5348030;26;20228;-79
2024/04/10 02:27:21;;;;;;;5.20;3.50;;;;;;;;;;5347047;26;20240;-79
2024/04/10 02:29:50;;;;;;;6.45;3.20;;;;;;;;;;5347121;26;20284;-80
2024/04/10 02:32:19;;;;;;;9.65;5.72;;;;;;;;;;5346366;26;20271;-80
2024/04/10 02:34:48;;;;;;;16.80;11.52;;;;;;;;;;5343782;26;20727;-80
2024/04/10 02:37:14;;;;;;;17.15;11.98;;;;;;;;;;5343025;26;20853;-80
2024/04/10 02:39:43;;;;;;;20.30;13.68;;;;;;;;;;5383367;26;20745;-81
2024/04/10 02:42:10;;;;;;;5.63;3.72;;;;;;;;;;5413783;26;20269;-80
2024/04/10 02:44:39;;;;;;;8.15;4.95;;;;;;;;;;5409694;26;20831;-80
2024/04/10 02:47:06;;;;;;;11.70;6.20;;;;;;;;;;5375236;26;20286;-80
2024/04/10 02:49:37;;;;;;;7.38;2.85;;;;;;;;;;5377108;26;21045;-80
2024/04/10 02:52:04;;;;;;;4.38;2.33;;;;;;;;;;5342964;26;20743;-80
2024/04/10 02:54:33;;;;;;;4.78;3.20;;;;;;;;;;5345903;26;20274;-79
2024/04/10 02:56:59;;;;;;;10.02;5.03;;;;;;;;;;5369887;26;20234;-79
2024/04/10 02:59:28;;;;;;;4.72;4.32;;;;;;;;;;5392198;26;20247;-79
2024/04/10 03:01:55;;;;;;;4.30;2.90;;;;;;;;;;5369111;26;20248;-80
2024/04/10 03:04:23;;;;;;;7.55;2.90;;;;;;;;;;5366438;26;20248;-81
2024/04/10 03:06:53;;;;;;;6.28;1.77;;;;;;;;;;5349945;26;20259;-79
2024/04/10 03:09:23;;;;;;;9.00;3.47;;;;;;;;;;5380829;26;20243;-82
2024/04/10 03:11:50;;;;;;;4.60;2.20;;;;;;;;;;5383177;26;20246;-82
2024/04/10 03:14:19;;;;;;;6.13;2.28;;;;;;;;;;5387425;26;20275;-79
2024/04/10 03:16:47;;;;;;;6.82;4.70;;;;;;;;;;5342372;26;20735;-80
2024/04/10 03:19:16;;;;;;;3.85;1.70;;;;;;;;;;5361738;26;20253;-79
2024/04/10 03:21:42;;;;;;;4.43;4.00;;;;;;;;;;5342119;26;20275;-79
2024/04/10 03:24:14;;;;;;;4.47;2.47;;;;;;;;;;5342024;26;20293;-80
2024/04/10 03:26:40;;;;;;;3.03;2.55;;;;;;;;;;5341167;26;20232;-80
2024/04/10 03:29:09;;;;;;;5.40;3.70;;;;;;;;;;5362220;26;20242;-79
2024/04/10 03:31:35;;;;;;;9.35;7.38;;;;;;;;;;5341370;26;20674;-78
2024/04/10 03:34:04;;;;;;;8.38;3.80;;;;;;;;;;5378095;26;20610;-80
2024/04/10 03:36:31;;;;;;;5.50;2.40;;;;;;;;;;5347584;26;20238;-80
2024/04/10 03:39:00;;;;;;;9.30;3.78;;;;;;;;;;5353333;26;20232;-81
2024/04/10 03:41:29;;;;;;;7.65;5.05;;;;;;;;;;5351157;26;20635;-80
2024/04/10 03:43:58;;;;;;;8.85;2.20;;;;;;;;;;5410167;26;20276;-80
2024/04/10 03:46:27;;;;;;;6.78;1.60;;;;;;;;;;5359788;26;20598;-79
2024/04/10 03:48:56;;;;;;;4.40;2.72;;;;;;;;;;5407594;26;20230;-80
2024/04/10 03:51:25;;;;;;;7.25;3.50;;;;;;;;;;5411113;26;20763;-80
2024/04/10 03:53:52;;;;;;;6.65;2.40;;;;;;;;;;5398375;26;20845;-79
2024/04/10 03:56:21;;;;;;;8.65;2.05;;;;;;;;;;5408622;26;20846;-80
2024/04/10 03:58:51;;;;;;;8.43;2.10;;;;;;;;;;5411761;26;20343;-79
2024/04/10 04:01:20;;;;;;;9.43;2.08;;;;;;;;;;5359616;26;20234;-79
2024/04/10 04:03:46;;;;;;;7.15;2.50;;;;;;;;;;5340738;26;20240;-80
2024/04/10 04:06:15;;;;;;;5.45;2.08;;;;;;;;;;5378495;26;20267;-82
2024/04/10 04:08:41;;;;;;;7.93;2.30;;;;;;;;;;5320604;26;20284;-82
2024/04/10 04:11:11;;;;;;;2.80;2.28;;;;;;;;;;5318576;26;20316;-82
2024/04/10 04:13:38;;;;;;;6.18;2.92;;;;;;;;;;5378371;26;20274;-80
2024/04/10 04:16:10;;;;;;;3.83;2.80;;;;;;;;;;5378813;26;20262;-79
2024/04/10 04:18:36;;;;;;;4.75;2.70;;;;;;;;;;5343856;26;20246;-80
2024/04/10 04:21:05;;;;;;;4.03;2.22;;;;;;;;;;5319771;26;20248;-80
2024/04/10 04:23:32;;;;;;;6.38;2.42;;;;;;;;;;5354514;26;20773;-80
2024/04/10 04:26:01;;;;;;;7.00;1.98;;;;;;;;;;5344390;26;20237;-80
2024/04/10 04:28:30;;;;;;;2.95;2.03;;;;;;;;;;5343907;26;20334;-80
2024/04/10 04:30:57;;;;;;;3.58;2.25;;;;;;;;;;5320633;26;20245;-80
2024/04/10 04:33:28;;;;;;;2.45;1.80;;;;;;;;;;5366636;26;20246;-79
2024/04/10 04:35:55;;;;;;;5.30;2.90;;;;;;;;;;5361719;26;20823;-80
2024/04/10 04:38:24;;;;;;;8.93;3.50;;;;;;;;;;5378550;26;20227;-80
2024/04/10 04:40:50;;;;;;;5.05;1.80;;;;;;;;;;5361212;26;20282;-80
2024/04/10 04:43:19;;;;;;;7.72;2.05;;;;;;;;;;5349801;26;20234;-80
2024/04/10 04:45:46;;;;;;;7.60;2.00;;;;;;;;;;5312938;26;20269;-79
2024/04/10 04:48:17;;;;;;;9.02;2.50;;;;;;;;;;5346947;26;20228;-79
2024/04/10 04:50:51;;;;;;;4.25;2.50;;;;;;;;;;5366467;26;20243;-80
2024/04/10 04:53:17;;;;;;;1.70;1.60;;;;;;;;;;5346920;26;20330;-79
2024/04/10 04:55:46;;;;;;;9.25;4.60;;;;;;;;;;5355414;26;20348;-79
2024/04/10 04:58:13;;;;;;;2.55;1.70;;;;;;;;;;5369737;26;20334;-79
2024/04/10 05:00:42;;;;;;;3.78;1.52;;;;;;;;;;5344748;26;20240;-79
2024/04/10 05:03:13;;;;;;;4.63;2.28;;;;;;;;;;5343556;26;20714;-80
2024/04/10 05:05:43;;;;;;;3.63;1.95;;;;;;;;;;5369781;26;20789;-78
2024/04/10 05:08:14;;;;;;;5.00;1.95;;;;;;;;;;5375230;26;20268;-78
2024/04/10 05:10:43;;;;;;;5.45;1.80;;;;;;;;;;5377267;26;20278;-85
2024/04/10 05:13:10;;;;;;;5.47;2.20;;;;;;;;;;5377986;26;20223;-80
2024/04/10 05:15:39;;;;;;;3.28;2.10;;;;;;;;;;5356564;26;20780;-81
2024/04/10 05:18:05;;;;;;;4.57;1.90;;;;;;;;;;5358282;26;20279;-83
2024/04/10 05:20:35;;;;;;;5.78;2.40;;;;;;;;;;5342934;26;20271;-80
2024/04/10 05:23:02;;;;;;;4.28;2.70;;;;;;;;;;5375647;26;20240;-82
2024/04/10 05:25:34;;;;;;;7.88;3.28;;;;;;;;;;5349056;26;20778;-78
2024/04/10 05:28:00;;;;;;;3.47;2.38;;;;;;;;;;5370532;26;20282;-81
2024/04/10 05:30:29;;;;;;;2.00;1.73;;;;;;;;;;5371844;26;20274;-83
2024/04/10 05:32:55;;;;;;;20.30;9.50;;;;;;;;;;5377647;26;20278;-81
2024/04/10 05:35:25;;;;;;;9.30;4.95;;;;;;;;;;5354444;26;20353;-79
2024/04/10 05:37:52;;;;;;;5.35;2.30;;;;;;;;;;5343261;26;20250;-80
2024/04/10 05:40:21;;;;;;;6.90;3.10;;;;;;;;;;5342858;26;20275;-81
2024/04/10 05:42:50;;;;;;;8.50;3.17;;;;;;;;;;5342718;26;20719;-81
2024/04/10 05:45:19;;;;;;;7.57;4.07;;;;;;;;;;5343211;26;20376;-83
2024/04/10 05:47:48;;;;;;;9.88;7.30;;;;;;;;;;5344067;26;20703;-80
2024/04/10 05:50:17;;;;;;;3.95;2.45;;;;;;;;;;5343303;26;20982;-80
2024/04/10 05:52:43;;;;;;;6.90;3.33;;;;;;;;;;5343353;26;20765;-81
2024/04/10 05:55:13;;;;;;;5.30;2.22;;;;;;;;;;5349707;26;20236;-80
2024/04/10 05:57:39;;;;;;;6.78;2.45;;;;;;;;;;5342916;26;20329;-81
2024/04/10 06:00:12;;;;;;;2.22;1.88;;;;;;;;;;5342577;26;20294;-81
2024/04/10 06:02:38;;;;;;;6.38;2.17;;;;;;;;;;5342954;26;20723;-81
2024/04/10 06:05:08;;;;;;;4.70;2.05;;;;;;;;;;5324235;26;20720;-81
2024/04/10 06:07:34;;;;;;;6.28;2.78;;;;;;;;;;5307997;26;20241;-80
2024/04/10 06:10:04;;;;;;;8.88;2.38;;;;;;;;;;5333065;26;20283;-81
2024/04/10 06:12:30;;;;;;;7.07;1.95;;;;;;;;;;5349655;26;20375;-81
2024/04/10 06:14:59;;;;;;;6.05;2.63;;;;;;;;;;5349732;26;20287;-81
2024/04/10 06:17:28;;;;;;;5.90;2.05;;;;;;;;;;5351931;26;20259;-81
2024/04/10 06:19:57;;;;;;;7.32;2.08;;;;;;;;;;5360477;26;20981;-81
2024/04/10 06:22:24;;;;;;;11.82;2.47;;;;;;;;;;5377122;26;20333;-82
2024/04/10 06:24:53;;;;;;;5.32;2.35;;;;;;;;;;5332151;26;20276;-81
2024/04/10 06:27:23;;;;;;;6.38;2.42;;;;;;;;;;5319291;26;20559;-81
2024/04/10 06:29:52;;;;;;;6.00;2.42;;;;;;;;;;5342189;26;20259;-81
2024/04/10 06:32:18;;;;;;;8.68;2.25;;;;;;;;;;5372827;26;20282;-81
2024/04/10 06:34:50;;;;;;;5.82;2.08;;;;;;;;;;5334503;26;20238;-81
2024/04/10 06:37:16;;;;;;;8.48;2.53;;;;;;;;;;5309423;26;20241;-81
2024/04/10 06:39:48;;;;;;;9.63;2.35;;;;;;;;;;5307362;26;20314;-81
2024/04/10 06:42:17;;;;;;;5.13;2.10;;;;;;;;;;5307723;26;20289;-80
2024/04/10 06:44:46;;;;;;;2.63;2.13;;;;;;;;;;5329859;26;20779;-81
2024/04/10 06:47:13;;;;;;;7.82;3.15;;;;;;;;;;5342082;26;20232;-81
2024/04/10 06:49:42;;;;;;;11.52;1.95;;;;;;;;;;5349476;26;20265;-82
2024/04/10 06:52:11;;;;;;;7.30;1.80;;;;;;;;;;5287387;26;20941;-78
2024/04/10 06:54:41;;;;;;;4.28;2.22;;;;;;;;;;5338956;26;20279;-81
2024/04/10 06:57:07;;;;;;;6.50;2.30;;;;;;;;;;5308363;26;20233;-79
2024/04/10 06:59:36;;;;;;;10.10;2.50;;;;;;;;;;5306723;26;20230;-84
2024/04/10 07:02:03;;;;;;;10.93;2.30;;;;;;;;;;5336416;26;20267;-80
2024/04/10 07:04:34;;;;;;;6.15;2.05;;;;;;;;;;5351504;26;20252;-80
2024/04/10 07:07:01;;;;;;;4.28;1.70;;;;;;;;;;5346785;26;20232;-81
2024/04/10 07:09:33;;;;;;;7.38;2.40;;;;;;;;;;5379216;26;20231;-81
2024/04/10 07:11:59;;;;;;;9.05;2.95;;;;;;;;;;5411709;26;20843;-80
2024/04/10 07:14:36;;;;;;;13.15;2.53;;;;;;;;;;5377192;26;20297;-80
2024/04/10 07:19:43;;;;;;;8.60;2.95;;;;;;;;;;4965281;21;20984;-79
2024/04/10 07:27:48;;;;;;;12.23;4.85;;;;;;;;;;5377452;26;20303;-83
2024/04/10 07:30:15;;;;;;;6.50;3.53;;;;;;;;;;5372725;26;20361;-82
2024/04/10 07:32:44;;;;;;;5.70;4.10;;;;;;;;;;5361808;26;20228;-80
2024/04/10 07:35:10;;;;;;;8.07;3.70;;;;;;;;;;5366367;26;20239;-83
2024/04/10 07:37:39;;;;;;;8.02;3.50;;;;;;;;;;5379877;26;20275;-83
2024/04/10 07:40:15;;;;;;;8.68;4.20;;;;;;;;;;5347522;26;20334;-82
2024/04/10 07:42:44;;;;;;;7.95;3.90;;;;;;;;;;5770670;21;20266;-81
2024/04/10 07:47:52;;;;;;;6.60;4.80;;;;;;;;;;5359968;21;20295;-79
2024/04/10 07:50:23;;;;;;;7.30;4.88;;;;;;;;;;5370639;26;20272;-80
2024/04/10 07:52:52;;;;;;;7.85;5.25;;;;;;;;;;5345132;26;20236;-82
2024/04/10 07:55:18;;;;;;;7.07;5.15;;;;;;;;;;5334434;26;20260;-80
2024/04/10 07:57:53;;;;;;;6.25;5.63;;;;;;;;;;5329570;26;20842;-82
2024/04/10 08:00:19;;;;;;;11.57;6.60;;;;;;;;;;5344333;26;20555;-82
2024/04/10 08:02:52;;;;;;;12.93;7.70;;;;;;;;;;5347050;26;20617;-81
2024/04/10 08:05:19;;;;;;;7.38;6.85;;;;;;;;;;5344074;26;20244;-80
2024/04/10 08:07:48;;;;;;;9.35;7.35;;;;;;;;;;5347360;26;20318;-82
2024/04/10 08:10:19;;;;;;;7.90;7.30;;;;;;;;;;5346245;26;20288;-82
2024/04/10 08:12:54;;;;;;;8.27;7.43;;;;;;;;;;5364593;26;20543;-81
2024/04/10 08:15:23;;;;;;;8.07;7.40;;;;;;;;;;5368117;26;20567;-80
2024/04/10 08:17:55;;;;;;;7.63;7.07;;;;;;;;;;5367906;26;20543;-80
2024/04/10 08:20:21;;;;;;;11.80;8.27;;;;;;;;;;5361998;26;20614;-81
2024/04/10 08:22:51;;;;;;;10.57;9.50;;;;;;;;;;5358455;26;20595;-83
2024/04/10 08:30:37;;;;;;;10.37;9.40;;;;;;;;;;5212232;27;20248;-82
2024/04/10 08:33:07;;;;;;;10.30;9.40;;;;;;;;;;5225366;27;20605;-81
2024/04/10 08:35:37;;;;;;;13.03;9.60;;;;;;;;;;5228877;27;20627;-82
2024/04/10 08:38:03;;;;;;;10.00;9.40;;;;;;;;;;5208071;27;20638;-82
2024/04/10 08:40:37;;;;;;;10.97;10.10;;;;;;;;;;5210518;27;20626;-82
2024/04/10 08:43:06;;;;;;;12.33;10.80;;;;;;;;;;5207511;27;20998;-82
2024/04/10 08:45:36;;;;;;;11.27;10.30;;;;;;;;;;5210549;27;20525;-83
2024/04/10 08:48:07;;;;;;;11.63;10.60;;;;;;;;;;6254202;21;20702;-82
2024/04/10 08:50:38;;;;;;;11.03;10.27;;;;;;;;;;5268684;27;20710;-83
2024/04/10 08:53:05;;;;;;;12.07;11.03;;;;;;;;;;5275218;27;20546;-81
2024/04/10 08:55:36;;;;;;;12.20;11.37;;;;;;;;;;5277741;26;20574;-82
2024/04/10 08:58:06;;;;;;;12.87;11.87;;;;;;;;;;5275649;27;20618;-83
2024/04/10 09:00:36;;;;;;;13.10;11.90;;;;;;;;;;5284972;27;20936;-81
2024/04/10 09:03:02;;;;;;;14.60;13.40;;;;;;;;;;5278080;27;20546;-82
2024/04/10 09:05:37;;;;;;;13.47;12.50;;;;;;;;;;5275995;26;20641;-81
2024/04/10 09:08:04;;;;;;;13.70;12.57;;;;;;;;;;5274862;27;21187;-82
2024/04/10 09:10:35;;;;;;;16.63;13.50;;;;;;;;;;5275953;27;20614;-80
2024/04/10 09:13:03;;;;;;;13.60;12.63;;;;;;;;;;5275919;27;20562;-80
2024/04/10 09:15:33;;;;;;;14.23;12.77;;;;;;;;;;5284518;27;20554;-79
2024/04/10 09:17:59;;;;;;;15.20;13.87;;;;;;;;;;5285561;27;20573;-82
2024/04/10 09:20:28;;;;;;;15.93;13.53;;;;;;;;;;5278414;27;20611;-82
2024/04/10 09:23:01;;;;;;;14.43;13.43;;;;;;;;;;5274604;27;20659;-83
2024/04/10 09:25:30;;;;;;;14.17;12.80;;;;;;;;;;5278049;27;20531;-81
2024/04/10 09:27:58;;;;;;;15.73;12.87;;;;;;;;;;5274795;27;20570;-81
2024/04/10 09:30:27;;;;;;;13.97;13.07;;;;;;;;;;5284011;27;20562;-81
2024/04/10 09:32:53;;;;;;;14.93;13.80;;;;;;;;;;5274454;27;20574;-81
2024/04/10 09:35:23;;;;;;;14.90;13.33;;;;;;;;;;5274733;27;20558;-81
2024/04/10 09:37:51;;;;;;;14.80;13.20;;;;;;;;;;5273511;27;20618;-81
2024/04/10 09:40:29;;;;;;;15.43;14.17;;;;;;;;;;5272749;27;20591;-80
2024/04/10 09:42:58;;;;;;;14.53;13.30;;;;;;;;;;5274133;27;20606;-80
2024/04/10 09:45:29;;;;;;;16.63;14.40;;;;;;;;;;5270613;27;20644;-81
2024/04/10 09:48:01;;;;;;;14.97;13.80;;;;;;;;;;5274236;27;20566;-82
2024/04/10 09:50:32;;;;;;;30.63;13.90;;;;;;;;;;5273704;27;21221;-82
2024/04/10 09:53:01;;;;;;;16.10;14.80;;;;;;;;;;5273790;27;21021;-82
2024/04/10 09:55:33;;;;;;;15.77;14.40;;;;;;;;;;5274603;27;20566;-82
2024/04/10 09:58:03;;;;;;;15.47;14.33;;;;;;;;;;5274628;27;20542;-83
2024/04/10 10:00:32;;;;;;;17.00;15.23;;;;;;;;;;5273987;27;21015;-83
2024/04/10 10:03:05;;;;;;;15.97;14.70;;;;;;;;;;5273867;27;21093;-83
2024/04/10 10:05:34;;;;;;;15.67;14.77;;;;;;;;;;5273444;27;20639;-84
2024/04/10 10:08:06;;;;;;;16.10;15.20;;;;;;;;;;5273384;27;20618;-84
2024/04/10 10:10:52;;;;;;;16.10;14.97;;;;;;;;;;5273386;27;20643;-83
2024/04/10 10:13:28;;;;;;;17.83;15.53;;;;;;;;;;5272082;27;20679;-87
2024/04/10 10:16:00;;;;;;;16.90;15.40;;;;;;;;;;5275663;27;20662;-85
2024/04/10 10:18:30;;;;;;;15.37;14.50;;;;;;;;;;5268774;27;20574;-86
2024/04/10 10:21:05;;;;;;;18.57;16.90;;;;;;;;;;5274592;27;20599;-86
2024/04/10 10:23:36;;;;;;;15.83;14.90;;;;;;;;;;5275294;27;20678;-84
2024/04/10 10:26:03;;;;;;;16.17;15.07;;;;;;;;;;5271517;27;20690;-86
2024/04/10 10:28:36;;;;;;;16.77;15.37;;;;;;;;;;5266492;27;20573;-85
2024/04/10 10:31:08;;;;;;;16.37;14.87;;;;;;;;;;5258722;27;20657;-83
2024/04/10 10:33:40;;;;;;;16.70;15.53;;;;;;;;;;5274985;27;20651;-84
2024/04/10 10:36:07;;;;;;;18.03;16.23;;;;;;;;;;5277982;27;20621;-84
2024/04/10 10:38:39;;;;;;;16.90;15.53;;;;;;;;;;5276570;27;20577;-84
2024/04/10 10:41:08;;;;;;;16.57;15.27;;;;;;;;;;5276763;27;20573;-85
2024/04/10 10:43:40;;;;;;;17.97;16.47;;;;;;;;;;5263759;27;20691;-84
2024/04/10 10:46:08;;;;;;;19.73;17.07;;;;;;;;;;5275421;27;20555;-85
2024/04/10 10:48:37;;;;;;;16.67;15.60;;;;;;;;;;5276284;27;20594;-86
2024/04/10 10:51:03;;;;;;;16.90;15.90;;;;;;;;;;5251428;27;20563;-84
2024/04/10 10:53:34;;;;;;;17.10;16.00;;;;;;;;;;5246858;27;21102;-83
2024/04/10 10:56:01;;;;;;;16.63;15.50;;;;;;;;;;5279160;27;20586;-84
2024/04/10 10:58:34;;;;;;;16.87;15.47;;;;;;;;;;5277840;27;20539;-82
2024/04/10 11:01:10;;;;;;;16.50;15.40;;;;;;;;;;5280577;27;20609;-85
2024/04/10 11:03:47;;;;;;;16.97;15.73;;;;;;;;;;5280756;27;20651;-87
2024/04/10 11:06:16;;;;;;;16.77;15.27;;;;;;;;;;5278229;27;20578;-82
2024/04/10 11:08:45;;;;;;;16.90;15.67;;;;;;;;;;5282278;27;20542;-81
2024/04/10 11:11:15;;;;;;;15.70;14.73;;;;;;;;;;5277537;27;20610;-83
2024/04/10 11:13:53;;;;;;;16.20;15.10;;;;;;;;;;5278110;27;20700;-81
2024/04/10 11:16:31;;;;;;;16.13;14.97;;;;;;;;;;5278081;27;20566;-80
2024/04/10 11:19:00;;;;;;;17.20;15.90;;;;;;;;;;5277979;27;20594;-81
2024/04/10 11:21:27;;;;;;;16.03;14.83;;;;;;;;;;5279586;27;20644;-82
2024/04/10 11:23:56;;;;;;;16.73;15.40;;;;;;;;;;5280070;27;20593;-83
2024/04/10 11:26:26;;;;;;;18.37;16.77;;;;;;;;;;5278650;27;20586;-80
2024/04/10 11:28:56;;;;;;;16.80;15.37;;;;;;;;;;5279151;27;20595;-85
2024/04/10 11:31:23;;;;;;;15.90;14.90;;;;;;;;;;5280024;27;20687;-86
2024/04/10 11:33:55;;;;;;;16.90;15.50;;;;;;;;;;5284290;27;21172;-82
2024/04/10 11:36:24;;;;;;;16.27;14.87;;;;;;;;;;5279645;27;20935;-82
2024/04/10 11:38:52;;;;;;;15.80;14.60;;;;;;;;;;5281008;27;20589;-83
2024/04/10 11:41:25;;;;;;;16.40;15.13;;;;;;;;;;5280739;27;21222;-83
2024/04/10 11:43:54;;;;;;;15.53;14.53;;;;;;;;;;5279000;27;20593;-84
2024/04/10 11:46:20;;;;;;;15.43;14.57;;;;;;;;;;5280487;27;20603;-81
2024/04/10 11:48:48;;;;;;;15.90;14.70;;;;;;;;;;5282266;27;21144;-83
2024/04/10 11:51:17;;;;;;;16.10;14.80;;;;;;;;;;5277603;27;20681;-83
2024/04/10 11:53:51;;;;;;;16.40;15.30;;;;;;;;;;5271228;27;20626;-83
2024/04/10 11:56:21;;;;;;;18.07;16.17;;;;;;;;;;5272115;27;20651;-82
2024/04/10 11:58:50;;;;;;;17.03;15.80;;;;;;;;;;5273491;27;20562;-82
2024/04/10 12:01:18;;;;;;;17.23;16.10;;;;;;;;;;5272929;27;20558;-82
2024/04/10 12:03:49;;;;;;;17.43;15.93;;;;;;;;;;5270392;27;20597;-82
2024/04/10 12:06:20;;;;;;;16.73;15.73;;;;;;;;;;5271614;27;20671;-80
2024/04/10 12:08:46;;;;;;;17.80;16.37;;;;;;;;;;5267292;27;20570;-84
2024/04/10 12:11:15;;;;;;;17.50;16.50;;;;;;;;;;5265529;27;20628;-83
2024/04/10 12:13:42;;;;;;;18.10;17.00;;;;;;;;;;5268595;27;20703;-84
2024/04/10 12:16:11;;;;;;;19.60;17.83;;;;;;;;;;5272934;27;20570;-84
2024/04/10 12:18:39;;;;;;;17.63;16.63;;;;;;;;;;5269238;27;20615;-83
2024/04/10 12:21:08;;;;;;;17.20;16.10;;;;;;;;;;5275595;27;20570;-84
2024/04/10 12:23:40;;;;;;;16.90;15.90;;;;;;;;;;5276766;27;20617;-85
2024/04/10 12:26:11;;;;;;;17.30;16.30;;;;;;;;;;5275879;27;20943;-82
2024/04/10 12:28:37;;;;;;;18.03;16.73;;;;;;;;;;5273733;27;20594;-81
2024/04/10 12:31:15;;;;;;;17.20;16.20;;;;;;;;;;5268770;27;20615;-83
2024/04/10 12:33:41;;;;;;;17.00;15.77;;;;;;;;;;5274520;27;20658;-85
2024/04/10 12:39:16;;;;;;;18.77;17.33;;;;;;;;;;5261208;27;20562;-83
2024/04/10 12:41:51;;;;;;;18.67;17.27;;;;;;;;;;5275692;27;20682;-84
2024/04/10 12:44:24;;;;;;;18.23;16.70;;;;;;;;;;5274705;27;20919;-82
2024/04/10 12:46:53;;;;;;;18.67;17.20;;;;;;;;;;5275067;27;20613;-84
2024/04/10 12:49:25;;;;;;;18.83;17.60;;;;;;;;;;5275259;27;20589;-84
2024/04/10 12:51:53;;;;;;;18.00;17.00;;;;;;;;;;5259648;27;20598;-86
2024/04/10 12:54:29;;;;;;;18.23;17.10;;;;;;;;;;5268506;27;21237;-86
2024/04/10 12:56:55;;;;;;;20.77;19.57;;;;;;;;;;5270362;27;21195;-86
2024/04/10 12:59:23;;;;;;;21.23;19.70;;;;;;;;;;5274264;27;20667;-86
2024/04/10 13:01:53;;;;;;;18.10;16.90;;;;;;;;;;5273234;27;20674;-79
2024/04/10 13:04:30;;;;;;;24.23;22.60;;;;;;;;;;5261924;27;20623;-79
2024/04/10 13:06:56;;;;;;;21.60;20.20;;;;;;;;;;5257717;27;20577;-80
2024/04/10 13:09:38;;;;;;;19.70;18.20;;;;;;;;;;5274402;27;20630;-80
2024/04/10 13:12:10;;;;;;;18.77;17.40;;;;;;;;;;5254897;27;20549;-80
2024/04/10 13:14:38;;;;;;;25.03;23.40;;;;;;;;;;5273105;27;20598;-81
2024/04/10 13:17:05;;;;;;;18.30;17.40;;;;;;;;;;5273256;27;20611;-81
2024/04/10 13:19:34;;;;;;;18.20;16.90;;;;;;;;;;5259689;27;21495;-81
2024/04/10 13:22:00;;;;;;;17.80;16.90;;;;;;;;;;5258072;27;20538;-77
2024/04/10 13:24:29;;;;;;;18.37;17.27;;;;;;;;;;5273269;27;20597;-81
2024/04/10 13:26:55;;;;;;;18.40;17.30;;;;;;;;;;5274558;27;20562;-79
2024/04/10 13:29:26;;;;;;;17.93;16.93;;;;;;;;;;5265052;27;20634;-82
2024/04/10 13:31:52;;;;;;;18.23;17.17;;;;;;;;;;5269244;27;20581;-83
2024/04/10 13:34:21;;;;;;;19.23;18.10;;;;;;;;;;5270565;27;20603;-84
2024/04/10 13:36:48;;;;;;;17.77;16.87;;;;;;;;;;5265860;27;20586;-81
2024/04/10 13:39:16;;;;;;;19.13;17.80;;;;;;;;;;5271308;27;20646;-81
2024/04/10 13:41:42;;;;;;;19.80;18.00;;;;;;;;;;5270203;27;20582;-81
2024/04/10 13:44:11;;;;;;;18.87;17.77;;;;;;;;;;5269590;27;21368;-81
2024/04/10 13:46:40;;;;;;;19.80;18.13;;;;;;;;;;5274695;27;20571;-81
2024/04/10 13:49:13;;;;;;;18.70;17.50;;;;;;;;;;5275566;27;20570;-78
2024/04/10 13:51:40;;;;;;;19.20;17.60;;;;;;;;;;5275582;27;20590;-80
2024/04/10 13:54:09;;;;;;;18.70;17.70;;;;;;;;;;5276035;27;20586;-83
2024/04/10 13:56:35;;;;;;;19.80;18.27;;;;;;;;;;5275992;27;20593;-78
2024/04/10 13:59:05;;;;;;;19.97;18.67;;;;;;;;;;5275319;27;20570;-78
2024/04/10 14:01:33;;;;;;;19.87;18.47;;;;;;;;;;5262374;27;20702;-78
2024/04/10 14:04:05;;;;;;;19.90;18.80;;;;;;;;;;5274109;27;20615;-78
2024/04/10 14:06:31;;;;;;;20.20;18.67;;;;;;;;;;5274106;27;20550;-78
2024/04/10 14:09:00;;;;;;;20.10;18.80;;;;;;;;;;5274235;27;20542;-77
2024/04/10 14:11:29;;;;;;;19.97;18.70;;;;;;;;;;5274444;27;20574;-76
2024/04/10 14:13:58;;;;;;;19.10;18.10;;;;;;;;;;5275755;27;20908;-77
2024/04/10 14:16:25;;;;;;;19.43;18.17;;;;;;;;;;5279308;27;20606;-81
2024/04/10 14:18:59;;;;;;;20.47;18.97;;;;;;;;;;5276653;27;20656;-82
2024/04/10 14:21:29;;;;;;;20.00;18.37;;;;;;;;;;5272950;27;20597;-80
2024/04/10 14:23:58;;;;;;;19.47;18.27;;;;;;;;;;5271476;27;21140;-80
2024/04/10 14:26:25;;;;;;;21.00;19.50;;;;;;;;;;5270746;27;20623;-79
2024/04/10 14:28:54;;;;;;;19.30;17.90;;;;;;;;;;5261163;27;20642;-79
2024/04/10 14:31:20;;;;;;;19.00;17.80;;;;;;;;;;5269790;27;20560;-79
2024/04/10 14:33:50;;;;;;;18.20;17.10;;;;;;;;;;5271533;27;20642;-82
2024/04/10 14:36:18;;;;;;;18.53;17.50;;;;;;;;;;5272737;27;20582;-76
2024/04/10 14:38:49;;;;;;;18.80;17.70;;;;;;;;;;5271094;27;20931;-77
2024/04/10 14:41:16;;;;;;;20.47;18.60;;;;;;;;;;5264052;27;21137;-77
2024/04/10 14:43:45;;;;;;;19.07;17.97;;;;;;;;;;5271768;27;20934;-76
2024/04/10 14:46:11;;;;;;;19.20;18.00;;;;;;;;;;5272032;27;20570;-80
2024/04/10 14:48:43;;;;;;;18.93;17.57;;;;;;;;;;5272571;27;20630;-78
2024/04/10 14:51:12;;;;;;;20.33;18.63;;;;;;;;;;5270023;27;21096;-77
2024/04/10 14:53:39;;;;;;;18.40;17.30;;;;;;;;;;5251158;27;20629;-78
2024/04/10 14:56:12;;;;;;;18.57;17.47;;;;;;;;;;5265984;27;21212;-78
2024/04/10 15:00:00;;;;;;;19.33;17.80;;;;;;;;;;5556021;25;20725;-81
2024/04/10 15:02:26;;;;;;;19.50;18.27;;;;;;;;;;5534269;25;20647;-78